sensor_id;sensor_type;location;lat;lon;timestamp;temperature;humidity
13960;DHT22;7052;51.050;3.716;2022-11-20T00:02:00;4.90;99.90
13960;DHT22;7052;51.050;3.716;2022-11-20T00:04:28;4.90;99.90
13960;DHT22;7052;51.050;3.716;2022-11-20T00:06:55;4.90;99.90
13960;DHT22;7052;51.050;3.716;2022-11-20T00:09:24;4.90;99.90
13960;DHT22;7052;51.050;3.716;2022-11-20T00:11:52;4.90;99.90
13960;DHT22;7052;51.050;3.716;2022-11-20T00:14:20;4.90;99.90
13960;DHT22;7052;51.050;3.716;2022-11-20T00:16:47;4.90;99.90
13960;DHT22;7052;51.050;3.716;2022-11-20T00:19:14;4.90;99.90
13960;DHT22;7052;51.050;3.716;2022-11-20T00:21:41;4.90;99.90
13960;DHT22;7052;51.050;3.716;2022-11-20T00:24:08;4.90;99.90
13960;DHT22;7052;51.050;3.716;2022-11-20T00:26:37;4.80;99.90
13960;DHT22;7052;51.050;3.716;2022-11-20T00:29:04;4.80;99.90
13960;DHT22;7052;51.050;3.716;2022-11-20T00:31:31;4.80;99.90
13960;DHT22;7052;51.050;3.716;2022-11-20T00:33:59;4.80;99.90
13960;DHT22;7052;51.050;3.716;2022-11-20T00:36:28;4.80;99.90
13960;DHT22;7052;51.050;3.716;2022-11-20T00:38:56;4.80;99.90
13960;DHT22;7052;51.050;3.716;2022-11-20T00:41:28;4.80;99.90
13960;DHT22;7052;51.050;3.716;2022-11-20T00:44:00;4.80;99.90
13960;DHT22;7052;51.050;3.716;2022-11-20T00:46:28;4.80;99.90
13960;DHT22;7052;51.050;3.716;2022-11-20T00:48:55;4.80;99.90
13960;DHT22;7052;51.050;3.716;2022-11-20T00:51:24;4.90;99.90
13960;DHT22;7052;51.050;3.716;2022-11-20T00:53:51;4.90;99.90
13960;DHT22;7052;51.050;3.716;2022-11-20T00:56:20;4.90;99.90
13960;DHT22;7052;51.050;3.716;2022-11-20T00:58:48;4.90;99.90
13960;DHT22;7052;51.050;3.716;2022-11-20T01:01:24;4.90;99.90
13960;DHT22;7052;51.050;3.716;2022-11-20T01:03:52;4.90;99.90
13960;DHT22;7052;51.050;3.716;2022-11-20T01:06:21;4.90;99.90
13960;DHT22;7052;51.050;3.716;2022-11-20T01:08:48;4.90;99.90
13960;DHT22;7052;51.050;3.716;2022-11-20T01:11:18;4.80;99.90
13960;DHT22;7052;51.050;3.716;2022-11-20T01:13:46;4.90;99.90
13960;DHT22;7052;51.050;3.716;2022-11-20T01:16:16;4.90;99.90
13960;DHT22;7052;51.050;3.716;2022-11-20T01:18:47;4.90;99.90
13960;DHT22;7052;51.050;3.716;2022-11-20T01:21:16;4.90;99.90
13960;DHT22;7052;51.050;3.716;2022-11-20T01:23:45;4.90;99.90
13960;DHT22;7052;51.050;3.716;2022-11-20T01:26:14;4.90;99.90
13960;DHT22;7052;51.050;3.716;2022-11-20T01:28:43;4.90;99.90
13960;DHT22;7052;51.050;3.716;2022-11-20T01:31:13;4.90;99.90
13960;DHT22;7052;51.050;3.716;2022-11-20T01:33:45;4.90;99.90
13960;DHT22;7052;51.050;3.716;2022-11-20T01:36:13;4.90;99.90
13960;DHT22;7052;51.050;3.716;2022-11-20T01:38:40;5.00;99.90
13960;DHT22;7052;51.050;3.716;2022-11-20T01:41:12;4.90;99.90
13960;DHT22;7052;51.050;3.716;2022-11-20T01:44:01;4.90;99.90
13960;DHT22;7052;51.050;3.716;2022-11-20T01:46:28;4.90;99.90
13960;DHT22;7052;51.050;3.716;2022-11-20T01:49:00;4.90;99.90
13960;DHT22;7052;51.050;3.716;2022-11-20T01:51:34;4.90;99.90
13960;DHT22;7052;51.050;3.716;2022-11-20T01:54:10;5.00;99.90
13960;DHT22;7052;51.050;3.716;2022-11-20T01:56:40;5.00;99.90
13960;DHT22;7052;51.050;3.716;2022-11-20T01:59:08;5.10;99.90
13960;DHT22;7052;51.050;3.716;2022-11-20T02:01:36;5.00;99.90
13960;DHT22;7052;51.050;3.716;2022-11-20T02:04:07;5.10;99.90
13960;DHT22;7052;51.050;3.716;2022-11-20T02:06:39;5.20;99.90
13960;DHT22;7052;51.050;3.716;2022-11-20T02:09:07;5.00;99.90
13960;DHT22;7052;51.050;3.716;2022-11-20T02:11:35;5.10;99.90
13960;DHT22;7052;51.050;3.716;2022-11-20T02:14:02;5.10;99.90
13960;DHT22;7052;51.050;3.716;2022-11-20T02:16:31;5.00;99.90
13960;DHT22;7052;51.050;3.716;2022-11-20T02:19:01;5.10;99.90
13960;DHT22;7052;51.050;3.716;2022-11-20T02:21:35;5.10;99.90
13960;DHT22;7052;51.050;3.716;2022-11-20T02:24:09;5.10;99.90
13960;DHT22;7052;51.050;3.716;2022-11-20T02:26:42;5.10;99.90
13960;DHT22;7052;51.050;3.716;2022-11-20T02:29:11;5.10;99.90
13960;DHT22;7052;51.050;3.716;2022-11-20T02:31:42;5.10;99.90
13960;DHT22;7052;51.050;3.716;2022-11-20T02:34:11;5.10;99.90
13960;DHT22;7052;51.050;3.716;2022-11-20T02:36:39;5.10;99.90
13960;DHT22;7052;51.050;3.716;2022-11-20T02:39:13;5.10;99.90
13960;DHT22;7052;51.050;3.716;2022-11-20T02:41:45;5.10;99.90
13960;DHT22;7052;51.050;3.716;2022-11-20T02:44:14;5.10;99.90
13960;DHT22;7052;51.050;3.716;2022-11-20T02:46:42;5.10;99.90
13960;DHT22;7052;51.050;3.716;2022-11-20T02:49:10;5.10;99.90
13960;DHT22;7052;51.050;3.716;2022-11-20T02:51:38;5.10;99.90
13960;DHT22;7052;51.050;3.716;2022-11-20T02:54:05;5.10;99.90
13960;DHT22;7052;51.050;3.716;2022-11-20T02:56:37;5.10;99.90
13960;DHT22;7052;51.050;3.716;2022-11-20T02:59:04;5.10;99.90
13960;DHT22;7052;51.050;3.716;2022-11-20T03:01:32;5.10;99.90
13960;DHT22;7052;51.050;3.716;2022-11-20T03:03:59;5.10;99.90
13960;DHT22;7052;51.050;3.716;2022-11-20T03:06:26;5.10;99.90
13960;DHT22;7052;51.050;3.716;2022-11-20T03:08:54;5.10;99.90
13960;DHT22;7052;51.050;3.716;2022-11-20T03:11:22;5.10;99.90
13960;DHT22;7052;51.050;3.716;2022-11-20T03:13:52;5.20;99.90
13960;DHT22;7052;51.050;3.716;2022-11-20T03:16:22;5.20;99.90
13960;DHT22;7052;51.050;3.716;2022-11-20T03:18:51;5.20;99.90
13960;DHT22;7052;51.050;3.716;2022-11-20T03:21:19;5.20;99.90
13960;DHT22;7052;51.050;3.716;2022-11-20T03:23:45;5.20;99.90
13960;DHT22;7052;51.050;3.716;2022-11-20T03:26:14;5.30;99.90
13960;DHT22;7052;51.050;3.716;2022-11-20T03:28:46;5.20;99.90
13960;DHT22;7052;51.050;3.716;2022-11-20T03:31:16;5.20;99.90
13960;DHT22;7052;51.050;3.716;2022-11-20T03:33:46;5.20;99.90
13960;DHT22;7052;51.050;3.716;2022-11-20T03:36:15;5.20;99.90
13960;DHT22;7052;51.050;3.716;2022-11-20T03:38:44;5.20;99.90
13960;DHT22;7052;51.050;3.716;2022-11-20T03:41:15;5.20;99.90
13960;DHT22;7052;51.050;3.716;2022-11-20T03:43:41;5.30;99.90
13960;DHT22;7052;51.050;3.716;2022-11-20T03:46:08;5.30;99.90
13960;DHT22;7052;51.050;3.716;2022-11-20T03:48:38;5.20;99.90
13960;DHT22;7052;51.050;3.716;2022-11-20T03:51:09;5.20;99.90
13960;DHT22;7052;51.050;3.716;2022-11-20T03:53:37;5.20;99.90
13960;DHT22;7052;51.050;3.716;2022-11-20T03:56:05;5.20;99.90
13960;DHT22;7052;51.050;3.716;2022-11-20T03:58:33;5.20;99.90
13960;DHT22;7052;51.050;3.716;2022-11-20T04:01:05;5.20;99.90
13960;DHT22;7052;51.050;3.716;2022-11-20T04:03:32;5.20;99.90
13960;DHT22;7052;51.050;3.716;2022-11-20T04:06:04;5.20;99.90
13960;DHT22;7052;51.050;3.716;2022-11-20T04:08:32;5.20;99.90
13960;DHT22;7052;51.050;3.716;2022-11-20T04:11:08;5.20;99.90
13960;DHT22;7052;51.050;3.716;2022-11-20T04:13:37;5.20;99.90
13960;DHT22;7052;51.050;3.716;2022-11-20T04:16:05;5.20;99.90
13960;DHT22;7052;51.050;3.716;2022-11-20T04:18:32;5.20;99.90
13960;DHT22;7052;51.050;3.716;2022-11-20T04:20:59;5.20;99.90
13960;DHT22;7052;51.050;3.716;2022-11-20T04:23:29;5.20;99.90
13960;DHT22;7052;51.050;3.716;2022-11-20T04:26:01;5.20;99.90
13960;DHT22;7052;51.050;3.716;2022-11-20T04:28:30;5.30;99.90
13960;DHT22;7052;51.050;3.716;2022-11-20T04:31:05;5.30;99.90
13960;DHT22;7052;51.050;3.716;2022-11-20T04:33:35;5.30;99.90
13960;DHT22;7052;51.050;3.716;2022-11-20T04:36:03;5.30;99.90
13960;DHT22;7052;51.050;3.716;2022-11-20T04:38:32;5.30;99.90
13960;DHT22;7052;51.050;3.716;2022-11-20T04:40:59;5.30;99.90
13960;DHT22;7052;51.050;3.716;2022-11-20T04:43:27;5.30;99.90
13960;DHT22;7052;51.050;3.716;2022-11-20T04:45:56;5.30;99.90
13960;DHT22;7052;51.050;3.716;2022-11-20T04:48:24;5.30;99.90
13960;DHT22;7052;51.050;3.716;2022-11-20T04:50:54;5.20;99.90
13960;DHT22;7052;51.050;3.716;2022-11-20T04:53:21;5.20;99.90
13960;DHT22;7052;51.050;3.716;2022-11-20T04:55:59;5.10;99.90
13960;DHT22;7052;51.050;3.716;2022-11-20T04:58:27;5.10;99.90
13960;DHT22;7052;51.050;3.716;2022-11-20T05:01:01;5.10;99.90
13960;DHT22;7052;51.050;3.716;2022-11-20T05:03:30;5.10;99.90
13960;DHT22;7052;51.050;3.716;2022-11-20T05:05:59;5.10;99.90
13960;DHT22;7052;51.050;3.716;2022-11-20T05:08:26;5.10;99.90
13960;DHT22;7052;51.050;3.716;2022-11-20T05:11:01;5.10;99.90
13960;DHT22;7052;51.050;3.716;2022-11-20T05:13:27;5.10;99.90
13960;DHT22;7052;51.050;3.716;2022-11-20T05:16:00;5.10;99.90
13960;DHT22;7052;51.050;3.716;2022-11-20T05:18:28;5.10;99.90
13960;DHT22;7052;51.050;3.716;2022-11-20T05:20:55;5.10;99.90
13960;DHT22;7052;51.050;3.716;2022-11-20T05:23:23;5.10;99.90
13960;DHT22;7052;51.050;3.716;2022-11-20T05:25:52;5.10;99.90
13960;DHT22;7052;51.050;3.716;2022-11-20T05:28:20;5.20;99.90
13960;DHT22;7052;51.050;3.716;2022-11-20T05:30:47;5.10;99.90
13960;DHT22;7052;51.050;3.716;2022-11-20T05:33:17;5.20;99.90
13960;DHT22;7052;51.050;3.716;2022-11-20T05:35:48;5.20;99.90
13960;DHT22;7052;51.050;3.716;2022-11-20T05:38:15;5.20;99.90
13960;DHT22;7052;51.050;3.716;2022-11-20T05:40:43;5.20;99.90
13960;DHT22;7052;51.050;3.716;2022-11-20T05:43:12;5.20;99.90
13960;DHT22;7052;51.050;3.716;2022-11-20T05:45:40;5.30;99.90
13960;DHT22;7052;51.050;3.716;2022-11-20T05:48:08;5.30;99.90
13960;DHT22;7052;51.050;3.716;2022-11-20T05:50:35;5.20;99.90
13960;DHT22;7052;51.050;3.716;2022-11-20T05:53:04;5.30;99.90
13960;DHT22;7052;51.050;3.716;2022-11-20T05:55:31;5.30;99.90
13960;DHT22;7052;51.050;3.716;2022-11-20T05:57:58;5.30;99.90
13960;DHT22;7052;51.050;3.716;2022-11-20T06:00:25;5.30;99.90
13960;DHT22;7052;51.050;3.716;2022-11-20T06:02:54;5.30;99.90
13960;DHT22;7052;51.050;3.716;2022-11-20T06:05:22;5.30;99.90
13960;DHT22;7052;51.050;3.716;2022-11-20T06:07:50;5.40;99.90
13960;DHT22;7052;51.050;3.716;2022-11-20T06:10:20;5.40;99.90
13960;DHT22;7052;51.050;3.716;2022-11-20T06:12:50;5.40;99.90
13960;DHT22;7052;51.050;3.716;2022-11-20T06:15:20;5.40;99.90
13960;DHT22;7052;51.050;3.716;2022-11-20T06:17:53;5.40;99.90
13960;DHT22;7052;51.050;3.716;2022-11-20T06:20:25;5.40;99.90
13960;DHT22;7052;51.050;3.716;2022-11-20T06:22:53;5.40;99.90
13960;DHT22;7052;51.050;3.716;2022-11-20T06:25:20;5.40;99.90
13960;DHT22;7052;51.050;3.716;2022-11-20T06:27:46;5.40;99.90
13960;DHT22;7052;51.050;3.716;2022-11-20T06:30:13;5.40;99.90
13960;DHT22;7052;51.050;3.716;2022-11-20T06:32:41;5.40;99.90
13960;DHT22;7052;51.050;3.716;2022-11-20T06:35:10;5.40;99.90
13960;DHT22;7052;51.050;3.716;2022-11-20T06:37:38;5.50;99.90
13960;DHT22;7052;51.050;3.716;2022-11-20T06:40:08;5.50;99.90
13960;DHT22;7052;51.050;3.716;2022-11-20T06:42:38;5.50;99.90
13960;DHT22;7052;51.050;3.716;2022-11-20T06:45:10;5.50;99.90
13960;DHT22;7052;51.050;3.716;2022-11-20T06:47:37;5.50;99.90
13960;DHT22;7052;51.050;3.716;2022-11-20T06:50:06;5.50;99.90
13960;DHT22;7052;51.050;3.716;2022-11-20T06:52:37;5.50;99.90
13960;DHT22;7052;51.050;3.716;2022-11-20T06:55:04;5.60;99.90
13960;DHT22;7052;51.050;3.716;2022-11-20T06:57:32;5.60;99.90
13960;DHT22;7052;51.050;3.716;2022-11-20T06:59:59;5.60;99.90
13960;DHT22;7052;51.050;3.716;2022-11-20T07:02:26;5.60;99.90
13960;DHT22;7052;51.050;3.716;2022-11-20T07:04:53;5.60;99.90
13960;DHT22;7052;51.050;3.716;2022-11-20T07:07:21;5.60;99.90
13960;DHT22;7052;51.050;3.716;2022-11-20T07:09:49;5.60;99.90
13960;DHT22;7052;51.050;3.716;2022-11-20T07:12:16;5.70;99.90
13960;DHT22;7052;51.050;3.716;2022-11-20T07:14:43;5.70;99.90
13960;DHT22;7052;51.050;3.716;2022-11-20T07:17:11;5.70;99.90
13960;DHT22;7052;51.050;3.716;2022-11-20T07:19:39;5.70;99.90
13960;DHT22;7052;51.050;3.716;2022-11-20T07:22:09;5.70;99.90
13960;DHT22;7052;51.050;3.716;2022-11-20T07:24:39;5.70;99.90
13960;DHT22;7052;51.050;3.716;2022-11-20T07:27:07;5.70;99.90
13960;DHT22;7052;51.050;3.716;2022-11-20T07:29:34;5.70;99.90
13960;DHT22;7052;51.050;3.716;2022-11-20T07:32:04;5.80;99.90
13960;DHT22;7052;51.050;3.716;2022-11-20T07:34:35;5.80;99.90
13960;DHT22;7052;51.050;3.716;2022-11-20T07:37:02;5.80;99.90
13960;DHT22;7052;51.050;3.716;2022-11-20T07:39:28;5.80;99.90
13960;DHT22;7052;51.050;3.716;2022-11-20T07:41:56;5.80;99.90
13960;DHT22;7052;51.050;3.716;2022-11-20T07:44:25;5.80;99.90
13960;DHT22;7052;51.050;3.716;2022-11-20T07:46:53;5.80;99.90
13960;DHT22;7052;51.050;3.716;2022-11-20T07:49:20;5.90;99.90
13960;DHT22;7052;51.050;3.716;2022-11-20T07:51:49;5.90;99.90
13960;DHT22;7052;51.050;3.716;2022-11-20T07:54:16;5.80;99.90
13960;DHT22;7052;51.050;3.716;2022-11-20T07:56:43;5.90;99.90
13960;DHT22;7052;51.050;3.716;2022-11-20T07:59:10;5.90;99.90
13960;DHT22;7052;51.050;3.716;2022-11-20T08:01:42;5.90;99.90
13960;DHT22;7052;51.050;3.716;2022-11-20T08:04:09;5.90;99.90
13960;DHT22;7052;51.050;3.716;2022-11-20T08:06:37;5.90;99.90
13960;DHT22;7052;51.050;3.716;2022-11-20T08:09:03;5.90;99.90
13960;DHT22;7052;51.050;3.716;2022-11-20T08:11:30;6.00;99.90
13960;DHT22;7052;51.050;3.716;2022-11-20T08:14:15;6.00;99.90
13960;DHT22;7052;51.050;3.716;2022-11-20T08:16:45;6.00;99.90
13960;DHT22;7052;51.050;3.716;2022-11-20T08:19:13;6.00;99.90
13960;DHT22;7052;51.050;3.716;2022-11-20T08:21:40;6.10;99.90
13960;DHT22;7052;51.050;3.716;2022-11-20T08:24:08;6.10;99.90
13960;DHT22;7052;51.050;3.716;2022-11-20T08:26:36;6.10;99.90
13960;DHT22;7052;51.050;3.716;2022-11-20T08:29:04;6.10;99.90
13960;DHT22;7052;51.050;3.716;2022-11-20T08:31:31;6.10;99.90
13960;DHT22;7052;51.050;3.716;2022-11-20T08:34:02;6.10;99.90
13960;DHT22;7052;51.050;3.716;2022-11-20T08:36:32;6.20;99.90
13960;DHT22;7052;51.050;3.716;2022-11-20T08:38:59;6.20;99.90
13960;DHT22;7052;51.050;3.716;2022-11-20T08:41:26;6.20;99.90
13960;DHT22;7052;51.050;3.716;2022-11-20T08:43:57;6.20;99.90
13960;DHT22;7052;51.050;3.716;2022-11-20T08:46:26;6.20;99.90
13960;DHT22;7052;51.050;3.716;2022-11-20T08:48:54;6.20;99.90
13960;DHT22;7052;51.050;3.716;2022-11-20T08:51:25;6.20;99.90
13960;DHT22;7052;51.050;3.716;2022-11-20T08:53:53;6.30;99.90
13960;DHT22;7052;51.050;3.716;2022-11-20T08:56:20;6.30;99.90
13960;DHT22;7052;51.050;3.716;2022-11-20T08:58:47;6.30;99.90
13960;DHT22;7052;51.050;3.716;2022-11-20T09:01:16;6.30;99.90
13960;DHT22;7052;51.050;3.716;2022-11-20T09:03:45;6.30;99.90
13960;DHT22;7052;51.050;3.716;2022-11-20T09:06:12;6.40;99.90
13960;DHT22;7052;51.050;3.716;2022-11-20T09:08:42;6.40;99.90
13960;DHT22;7052;51.050;3.716;2022-11-20T09:11:10;6.40;99.90
13960;DHT22;7052;51.050;3.716;2022-11-20T09:13:38;6.40;99.90
13960;DHT22;7052;51.050;3.716;2022-11-20T09:16:07;6.40;99.90
13960;DHT22;7052;51.050;3.716;2022-11-20T09:18:36;6.50;99.90
13960;DHT22;7052;51.050;3.716;2022-11-20T09:21:05;6.50;99.90
13960;DHT22;7052;51.050;3.716;2022-11-20T09:23:34;6.60;99.90
13960;DHT22;7052;51.050;3.716;2022-11-20T09:26:07;6.60;99.90
13960;DHT22;7052;51.050;3.716;2022-11-20T09:28:33;6.70;99.90
13960;DHT22;7052;51.050;3.716;2022-11-20T09:31:05;6.70;99.90
13960;DHT22;7052;51.050;3.716;2022-11-20T09:33:32;6.80;99.90
13960;DHT22;7052;51.050;3.716;2022-11-20T09:36:00;6.80;99.90
13960;DHT22;7052;51.050;3.716;2022-11-20T09:38:27;6.90;99.90
13960;DHT22;7052;51.050;3.716;2022-11-20T09:40:57;7.00;99.90
13960;DHT22;7052;51.050;3.716;2022-11-20T09:43:38;7.00;99.90
13960;DHT22;7052;51.050;3.716;2022-11-20T09:46:14;7.10;99.90
13960;DHT22;7052;51.050;3.716;2022-11-20T09:48:51;7.20;99.90
13960;DHT22;7052;51.050;3.716;2022-11-20T09:51:31;7.20;99.90
13960;DHT22;7052;51.050;3.716;2022-11-20T09:54:13;7.30;99.90
13960;DHT22;7052;51.050;3.716;2022-11-20T09:56:51;7.30;99.90
13960;DHT22;7052;51.050;3.716;2022-11-20T09:59:38;7.40;99.90
13960;DHT22;7052;51.050;3.716;2022-11-20T10:02:16;7.50;99.90
13960;DHT22;7052;51.050;3.716;2022-11-20T10:04:48;7.60;99.90
13960;DHT22;7052;51.050;3.716;2022-11-20T10:07:22;7.70;99.90
13960;DHT22;7052;51.050;3.716;2022-11-20T10:09:52;7.70;99.90
13960;DHT22;7052;51.050;3.716;2022-11-20T10:12:27;7.80;99.90
13960;DHT22;7052;51.050;3.716;2022-11-20T10:15:09;7.90;99.90
13960;DHT22;7052;51.050;3.716;2022-11-20T10:18:17;7.90;99.90
13960;DHT22;7052;51.050;3.716;2022-11-20T10:20:58;8.00;99.90
13960;DHT22;7052;51.050;3.716;2022-11-20T10:23:41;8.10;99.90
13960;DHT22;7052;51.050;3.716;2022-11-20T10:26:17;8.10;99.90
13960;DHT22;7052;51.050;3.716;2022-11-20T10:28:58;8.20;99.90
13960;DHT22;7052;51.050;3.716;2022-11-20T10:31:34;8.20;99.90
13960;DHT22;7052;51.050;3.716;2022-11-20T10:34:06;8.20;99.90
13960;DHT22;7052;51.050;3.716;2022-11-20T10:36:40;8.30;99.90
13960;DHT22;7052;51.050;3.716;2022-11-20T10:39:16;8.30;99.90
13960;DHT22;7052;51.050;3.716;2022-11-20T10:41:50;8.40;99.90
13960;DHT22;7052;51.050;3.716;2022-11-20T10:44:22;8.40;99.90
13960;DHT22;7052;51.050;3.716;2022-11-20T10:47:13;8.50;99.90
13960;DHT22;7052;51.050;3.716;2022-11-20T10:49:42;8.50;99.90
13960;DHT22;7052;51.050;3.716;2022-11-20T10:52:16;8.60;99.90
13960;DHT22;7052;51.050;3.716;2022-11-20T10:54:49;8.70;99.90
13960;DHT22;7052;51.050;3.716;2022-11-20T10:57:31;8.80;99.90
13960;DHT22;7052;51.050;3.716;2022-11-20T11:00:06;8.80;99.90
13960;DHT22;7052;51.050;3.716;2022-11-20T11:02:40;8.80;99.90
13960;DHT22;7052;51.050;3.716;2022-11-20T11:05:22;8.80;99.90
13960;DHT22;7052;51.050;3.716;2022-11-20T11:07:54;8.90;99.90
13960;DHT22;7052;51.050;3.716;2022-11-20T11:10:26;8.90;99.90
13960;DHT22;7052;51.050;3.716;2022-11-20T11:12:55;8.90;99.90
13960;DHT22;7052;51.050;3.716;2022-11-20T11:15:27;8.90;99.90
13960;DHT22;7052;51.050;3.716;2022-11-20T11:17:57;8.90;99.90
13960;DHT22;7052;51.050;3.716;2022-11-20T11:20:31;8.90;99.90
13960;DHT22;7052;51.050;3.716;2022-11-20T11:22:58;9.00;99.90
13960;DHT22;7052;51.050;3.716;2022-11-20T11:25:29;8.90;99.90
13960;DHT22;7052;51.050;3.716;2022-11-20T11:28:02;9.00;99.90
13960;DHT22;7052;51.050;3.716;2022-11-20T11:30:40;8.90;99.90
13960;DHT22;7052;51.050;3.716;2022-11-20T11:33:24;8.90;99.90
13960;DHT22;7052;51.050;3.716;2022-11-20T11:35:52;8.90;99.90
13960;DHT22;7052;51.050;3.716;2022-11-20T11:38:32;8.90;99.90
13960;DHT22;7052;51.050;3.716;2022-11-20T11:41:04;8.80;99.90
13960;DHT22;7052;51.050;3.716;2022-11-20T11:43:37;8.90;99.90
13960;DHT22;7052;51.050;3.716;2022-11-20T11:46:31;8.90;99.90
13960;DHT22;7052;51.050;3.716;2022-11-20T11:49:08;8.80;99.90
13960;DHT22;7052;51.050;3.716;2022-11-20T11:51:45;8.70;99.90
13960;DHT22;7052;51.050;3.716;2022-11-20T11:54:17;8.60;99.90
13960;DHT22;7052;51.050;3.716;2022-11-20T11:56:47;8.60;99.90
13960;DHT22;7052;51.050;3.716;2022-11-20T11:59:25;8.50;99.90
13960;DHT22;7052;51.050;3.716;2022-11-20T12:02:08;8.50;99.90
13960;DHT22;7052;51.050;3.716;2022-11-20T12:04:46;8.40;99.90
13960;DHT22;7052;51.050;3.716;2022-11-20T12:07:32;8.30;99.90
13960;DHT22;7052;51.050;3.716;2022-11-20T12:10:03;8.30;99.90
13960;DHT22;7052;51.050;3.716;2022-11-20T12:12:34;8.30;99.90
13960;DHT22;7052;51.050;3.716;2022-11-20T12:15:06;8.30;99.90
13960;DHT22;7052;51.050;3.716;2022-11-20T12:17:40;8.30;99.90
13960;DHT22;7052;51.050;3.716;2022-11-20T12:20:16;8.30;99.90
13960;DHT22;7052;51.050;3.716;2022-11-20T12:22:52;8.30;99.90
13960;DHT22;7052;51.050;3.716;2022-11-20T12:25:28;8.30;99.90
13960;DHT22;7052;51.050;3.716;2022-11-20T12:28:21;8.20;99.90
13960;DHT22;7052;51.050;3.716;2022-11-20T12:31:04;8.20;99.90
13960;DHT22;7052;51.050;3.716;2022-11-20T12:33:47;8.10;99.90
13960;DHT22;7052;51.050;3.716;2022-11-20T12:36:24;8.10;99.90
13960;DHT22;7052;51.050;3.716;2022-11-20T12:39:18;8.10;99.90
13960;DHT22;7052;51.050;3.716;2022-11-20T12:42:01;8.10;99.90
13960;DHT22;7052;51.050;3.716;2022-11-20T12:45:10;8.20;99.90
13960;DHT22;7052;51.050;3.716;2022-11-20T12:48:01;8.10;99.90
13960;DHT22;7052;51.050;3.716;2022-11-20T12:50:52;8.10;99.90
13960;DHT22;7052;51.050;3.716;2022-11-20T12:53:33;8.10;99.90
13960;DHT22;7052;51.050;3.716;2022-11-20T12:56:18;8.10;99.90
13960;DHT22;7052;51.050;3.716;2022-11-20T12:59:21;8.10;99.90
13960;DHT22;7052;51.050;3.716;2022-11-20T13:01:52;8.10;99.90
13960;DHT22;7052;51.050;3.716;2022-11-20T13:04:39;8.10;99.90
13960;DHT22;7052;51.050;3.716;2022-11-20T13:07:13;8.10;99.90
13960;DHT22;7052;51.050;3.716;2022-11-20T13:09:44;8.10;99.90
13960;DHT22;7052;51.050;3.716;2022-11-20T13:12:16;8.10;99.90
13960;DHT22;7052;51.050;3.716;2022-11-20T13:15:02;8.10;99.90
13960;DHT22;7052;51.050;3.716;2022-11-20T13:17:39;8.20;99.90
13960;DHT22;7052;51.050;3.716;2022-11-20T13:20:14;8.20;99.90
13960;DHT22;7052;51.050;3.716;2022-11-20T13:22:44;8.20;99.90
13960;DHT22;7052;51.050;3.716;2022-11-20T13:25:26;8.20;99.90
13960;DHT22;7052;51.050;3.716;2022-11-20T13:27:55;8.20;99.90
13960;DHT22;7052;51.050;3.716;2022-11-20T13:30:25;8.20;99.90
13960;DHT22;7052;51.050;3.716;2022-11-20T13:32:54;8.20;99.90
13960;DHT22;7052;51.050;3.716;2022-11-20T13:35:30;8.20;99.90
13960;DHT22;7052;51.050;3.716;2022-11-20T13:38:03;8.20;99.90
13960;DHT22;7052;51.050;3.716;2022-11-20T13:40:32;8.20;99.90
13960;DHT22;7052;51.050;3.716;2022-11-20T13:43:21;8.40;99.90
13960;DHT22;7052;51.050;3.716;2022-11-20T13:45:58;8.20;99.90
13960;DHT22;7052;51.050;3.716;2022-11-20T13:48:29;8.20;99.90
13960;DHT22;7052;51.050;3.716;2022-11-20T13:51:23;8.30;99.90
13960;DHT22;7052;51.050;3.716;2022-11-20T13:54:09;8.30;99.90
13960;DHT22;7052;51.050;3.716;2022-11-20T13:56:53;8.30;99.90
13960;DHT22;7052;51.050;3.716;2022-11-20T13:59:40;8.30;99.90
13960;DHT22;7052;51.050;3.716;2022-11-20T14:02:12;8.30;99.90
13960;DHT22;7052;51.050;3.716;2022-11-20T14:04:43;8.30;99.90
13960;DHT22;7052;51.050;3.716;2022-11-20T14:07:12;8.30;99.90
13960;DHT22;7052;51.050;3.716;2022-11-20T14:09:49;8.40;99.90
13960;DHT22;7052;51.050;3.716;2022-11-20T14:12:27;8.40;99.90
13960;DHT22;7052;51.050;3.716;2022-11-20T14:14:55;8.50;99.90
13960;DHT22;7052;51.050;3.716;2022-11-20T14:17:24;8.50;99.90
13960;DHT22;7052;51.050;3.716;2022-11-20T14:19:59;8.60;99.90
13960;DHT22;7052;51.050;3.716;2022-11-20T14:22:28;8.60;99.90
13960;DHT22;7052;51.050;3.716;2022-11-20T14:25:20;8.70;99.90
13960;DHT22;7052;51.050;3.716;2022-11-20T14:27:56;8.70;99.90
13960;DHT22;7052;51.050;3.716;2022-11-20T14:30:26;8.70;99.90
13960;DHT22;7052;51.050;3.716;2022-11-20T14:32:56;8.80;99.90
13960;DHT22;7052;51.050;3.716;2022-11-20T14:35:25;8.90;99.90
13960;DHT22;7052;51.050;3.716;2022-11-20T14:37:54;8.90;99.90
13960;DHT22;7052;51.050;3.716;2022-11-20T14:40:28;9.20;99.90
13960;DHT22;7052;51.050;3.716;2022-11-20T14:42:57;9.00;99.90
13960;DHT22;7052;51.050;3.716;2022-11-20T14:45:26;9.00;99.90
13960;DHT22;7052;51.050;3.716;2022-11-20T14:47:56;9.30;99.90
13960;DHT22;7052;51.050;3.716;2022-11-20T14:50:25;9.10;99.90
13960;DHT22;7052;51.050;3.716;2022-11-20T14:52:55;9.10;99.90
13960;DHT22;7052;51.050;3.716;2022-11-20T14:55:27;9.20;99.90
13960;DHT22;7052;51.050;3.716;2022-11-20T14:57:58;9.20;99.90
13960;DHT22;7052;51.050;3.716;2022-11-20T15:00:26;9.20;99.90
13960;DHT22;7052;51.050;3.716;2022-11-20T15:02:53;9.30;99.90
13960;DHT22;7052;51.050;3.716;2022-11-20T15:05:25;9.20;99.90
13960;DHT22;7052;51.050;3.716;2022-11-20T15:08:06;9.20;99.90
13960;DHT22;7052;51.050;3.716;2022-11-20T15:10:34;9.30;99.90
13960;DHT22;7052;51.050;3.716;2022-11-20T15:13:11;9.30;99.90
13960;DHT22;7052;51.050;3.716;2022-11-20T15:15:43;9.30;99.90
13960;DHT22;7052;51.050;3.716;2022-11-20T15:18:16;9.30;99.90
13960;DHT22;7052;51.050;3.716;2022-11-20T15:20:45;9.30;99.90
13960;DHT22;7052;51.050;3.716;2022-11-20T15:23:14;9.30;99.90
13960;DHT22;7052;51.050;3.716;2022-11-20T15:25:41;9.30;99.90
13960;DHT22;7052;51.050;3.716;2022-11-20T15:28:16;9.30;99.90
13960;DHT22;7052;51.050;3.716;2022-11-20T15:30:44;9.30;99.90
13960;DHT22;7052;51.050;3.716;2022-11-20T15:33:11;9.30;99.90
13960;DHT22;7052;51.050;3.716;2022-11-20T15:35:43;9.30;99.90
13960;DHT22;7052;51.050;3.716;2022-11-20T15:38:16;9.30;99.90
13960;DHT22;7052;51.050;3.716;2022-11-20T15:40:43;9.20;99.90
13960;DHT22;7052;51.050;3.716;2022-11-20T15:43:11;9.20;99.90
13960;DHT22;7052;51.050;3.716;2022-11-20T15:45:40;9.10;99.90
13960;DHT22;7052;51.050;3.716;2022-11-20T15:48:11;9.00;99.90
13960;DHT22;7052;51.050;3.716;2022-11-20T15:50:47;9.00;99.90
13960;DHT22;7052;51.050;3.716;2022-11-20T15:53:15;9.00;99.90
13960;DHT22;7052;51.050;3.716;2022-11-20T15:55:45;9.00;99.90
13960;DHT22;7052;51.050;3.716;2022-11-20T15:58:14;9.00;99.90
13960;DHT22;7052;51.050;3.716;2022-11-20T16:00:42;8.90;99.90
13960;DHT22;7052;51.050;3.716;2022-11-20T16:03:15;8.90;99.90
13960;DHT22;7052;51.050;3.716;2022-11-20T16:05:45;8.90;99.90
13960;DHT22;7052;51.050;3.716;2022-11-20T16:08:13;8.90;99.90
13960;DHT22;7052;51.050;3.716;2022-11-20T16:10:42;8.90;99.90
13960;DHT22;7052;51.050;3.716;2022-11-20T16:13:14;9.00;99.90
13960;DHT22;7052;51.050;3.716;2022-11-20T16:16:02;8.70;99.90
13960;DHT22;7052;51.050;3.716;2022-11-20T16:18:32;9.00;99.90
13960;DHT22;7052;51.050;3.716;2022-11-20T16:20:59;9.00;99.90
13960;DHT22;7052;51.050;3.716;2022-11-20T16:23:26;9.10;99.90
13960;DHT22;7052;51.050;3.716;2022-11-20T16:25:55;9.10;99.90
13960;DHT22;7052;51.050;3.716;2022-11-20T16:28:27;9.10;99.90
13960;DHT22;7052;51.050;3.716;2022-11-20T16:30:56;9.00;99.90